createdAt,value
2023-03-31T00:01:14.258Z,11.50
2023-03-31T00:03:43.952Z,11.63
2023-03-31T00:06:19.010Z,12.10
2023-03-31T00:08:51.859Z,10.80
2023-03-31T00:11:21.484Z,12.27
2023-03-31T00:13:49.669Z,10.50
2023-03-31T00:16:19.178Z,12.20
2023-03-31T00:18:50.721Z,11.03
2023-03-31T00:21:33.901Z,11.20
2023-03-31T00:24:03.615Z,10.90
2023-03-31T00:26:31.725Z,10.57
2023-03-31T00:29:00.502Z,10.80
2023-03-31T00:31:30.500Z,10.93
2023-03-31T00:33:59.047Z,11.57
2023-03-31T00:36:28.483Z,11.10
2023-03-31T00:39:00.194Z,10.80
2023-03-31T00:41:28.970Z,11.90
2023-03-31T00:44:08.581Z,11.20
2023-03-31T00:46:43.378Z,11.33
2023-03-31T00:49:18.174Z,11.77
2023-03-31T00:51:46.826Z,10.23
2023-03-31T00:54:15.462Z,10.43
2023-03-31T00:56:48.266Z,10.97
2023-03-31T00:59:16.823Z,11.03
2023-03-31T01:01:50.690Z,10.80
2023-03-31T01:04:22.652Z,10.23
2023-03-31T01:07:01.012Z,11.00
2023-03-31T01:09:35.143Z,10.50
2023-03-31T01:12:07.111Z,11.23
2023-03-31T01:14:35.931Z,11.37
2023-03-31T01:17:05.625Z,10.47
2023-03-31T01:19:49.826Z,10.47
2023-03-31T01:22:49.545Z,10.53
2023-03-31T01:25:42.752Z,10.73
2023-03-31T01:28:23.126Z,11.17
2023-03-31T01:31:34.134Z,11.47
2023-03-31T01:34:43.261Z,11.93
2023-03-31T01:37:51.948Z,14.70
2023-03-31T01:40:45.205Z,18.60
2023-03-31T01:43:18.795Z,18.70
2023-03-31T01:45:58.810Z,20.07
2023-03-31T01:48:36.990Z,19.40
2023-03-31T01:51:11.484Z,17.70
2023-03-31T01:53:50.760Z,16.83
2023-03-31T01:56:24.765Z,16.13
2023-03-31T01:59:00.771Z,19.50
2023-03-31T02:01:33.900Z,16.43
2023-03-31T02:04:11.403Z,13.20
2023-03-31T02:06:43.831Z,13.93
2023-03-31T02:09:16.886Z,14.43
2023-03-31T02:11:48.673Z,13.20
2023-03-31T02:14:21.938Z,15.03
2023-03-31T02:16:58.366Z,13.43
2023-03-31T02:19:31.158Z,14.37
2023-03-31T02:22:00.077Z,15.10
2023-03-31T02:24:31.120Z,15.47
2023-03-31T02:27:08.107Z,14.37
2023-03-31T02:29:36.293Z,14.73
2023-03-31T02:32:11.179Z,15.13
2023-03-31T02:34:39.181Z,15.37
2023-03-31T02:37:08.488Z,15.43
2023-03-31T02:39:39.771Z,15.97
2023-03-31T02:42:09.913Z,15.33
2023-03-31T02:44:39.179Z,15.47
2023-03-31T02:47:09.521Z,15.20
2023-03-31T02:49:39.883Z,16.63
2023-03-31T02:52:30.381Z,17.93
2023-03-31T02:55:24.680Z,16.30
2023-03-31T02:58:14.317Z,16.50
2023-03-31T03:00:57.253Z,14.80
2023-03-31T03:03:37.183Z,13.17
2023-03-31T03:06:17.789Z,12.30
2023-03-31T03:08:59.558Z,13.37
2023-03-31T03:11:34.804Z,12.10
2023-03-31T03:14:11.544Z,12.07
2023-03-31T03:16:46.224Z,11.70
2023-03-31T03:19:23.554Z,9.30
2023-03-31T03:21:51.717Z,10.03
2023-03-31T03:24:29.552Z,10.20
2023-03-31T03:26:57.809Z,10.27
2023-03-31T03:29:27.327Z,9.17
2023-03-31T03:31:55.457Z,12.20
2023-03-31T03:34:23.333Z,11.03
2023-03-31T03:36:51.940Z,11.87
2023-03-31T03:39:19.870Z,11.17
2023-03-31T03:41:48.021Z,8.47
2023-03-31T03:44:16.020Z,12.30
2023-03-31T03:46:45.503Z,9.83
2023-03-31T03:49:13.611Z,8.93
2023-03-31T03:51:41.534Z,7.30
2023-03-31T03:54:09.378Z,6.20
2023-03-31T03:56:37.246Z,5.87
2023-03-31T03:59:05.089Z,5.13
2023-03-31T04:01:32.953Z,5.10
2023-03-31T04:04:02.211Z,5.27
2023-03-31T04:06:30.197Z,5.47
2023-03-31T04:08:58.097Z,5.37
2023-03-31T04:11:26.058Z,4.77
2023-03-31T04:13:53.870Z,5.30
2023-03-31T04:16:23.096Z,5.20
2023-03-31T04:18:50.993Z,4.90
2023-03-31T04:21:23.841Z,5.80
2023-03-31T04:23:58.800Z,6.03
2023-03-31T04:26:31.066Z,5.83
2023-03-31T04:29:00.487Z,5.30
2023-03-31T04:31:30.877Z,6.30
2023-03-31T04:34:02.606Z,6.03
2023-03-31T04:36:32.421Z,6.93
2023-03-31T04:39:01.331Z,7.30
2023-03-31T04:41:29.236Z,7.43
2023-03-31T04:43:57.161Z,7.73
2023-03-31T04:46:25.601Z,7.70
2023-03-31T04:48:53.526Z,7.37
2023-03-31T04:51:21.385Z,7.30
2023-03-31T04:53:50.557Z,7.03
2023-03-31T04:56:18.454Z,7.30
2023-03-31T04:58:46.302Z,7.53
2023-03-31T05:01:18.257Z,6.43
2023-03-31T05:03:47.994Z,6.97
2023-03-31T05:06:16.485Z,7.03
2023-03-31T05:08:45.150Z,6.90
2023-03-31T05:11:14.377Z,7.60
2023-03-31T05:13:42.239Z,7.67
2023-03-31T05:16:12.393Z,7.50
2023-03-31T05:18:40.445Z,7.97
2023-03-31T05:21:13.118Z,9.47
2023-03-31T05:23:41.547Z,12.10
2023-03-31T05:26:10.018Z,11.60
2023-03-31T05:28:39.581Z,10.47
2023-03-31T05:31:08.710Z,9.30
2023-03-31T05:33:40.389Z,8.73
2023-03-31T05:36:10.662Z,9.40
2023-03-31T05:38:40.825Z,8.50
2023-03-31T05:41:09.538Z,9.07
2023-03-31T05:43:39.423Z,9.07
2023-03-31T05:46:07.996Z,7.47
2023-03-31T05:48:37.966Z,8.53
2023-03-31T05:51:06.848Z,7.43
2023-03-31T05:53:35.221Z,8.63
2023-03-31T05:56:06.952Z,9.40
2023-03-31T05:58:35.683Z,9.13
2023-03-31T06:01:07.315Z,8.00
2023-03-31T06:03:37.505Z,8.23
2023-03-31T06:06:07.379Z,7.20
2023-03-31T06:08:35.801Z,8.27
2023-03-31T06:11:07.050Z,7.40
2023-03-31T06:13:35.176Z,7.03
2023-03-31T06:16:03.524Z,9.03
2023-03-31T06:18:34.266Z,8.43
2023-03-31T06:21:02.530Z,7.97
2023-03-31T06:23:31.144Z,9.37
2023-03-31T06:26:02.378Z,8.40
2023-03-31T06:28:30.529Z,8.33
2023-03-31T06:31:02.969Z,8.43
2023-03-31T06:33:33.170Z,7.90
2023-03-31T06:36:04.328Z,7.90
2023-03-31T06:38:32.901Z,8.17
2023-03-31T06:41:00.793Z,8.80
2023-03-31T06:43:28.732Z,9.77
2023-03-31T06:45:57.761Z,9.57
2023-03-31T06:48:26.648Z,8.17
2023-03-31T06:50:57.733Z,8.77
2023-03-31T06:53:25.883Z,9.23
2023-03-31T06:55:53.871Z,9.30
2023-03-31T06:58:22.582Z,9.67
2023-03-31T07:00:50.902Z,10.90
2023-03-31T07:03:22.471Z,10.00
2023-03-31T07:05:51.382Z,8.53
2023-03-31T07:08:21.586Z,8.80
2023-03-31T07:10:50.331Z,9.10
2023-03-31T07:13:19.182Z,9.60
2023-03-31T07:15:49.619Z,10.48
2023-03-31T07:18:19.163Z,10.40
2023-03-31T07:20:49.700Z,9.40
2023-03-31T07:23:18.153Z,8.60
2023-03-31T07:25:47.913Z,8.20
2023-03-31T07:28:16.408Z,7.65
2023-03-31T07:30:44.640Z,7.90
2023-03-31T07:33:12.621Z,5.38
2023-03-31T07:35:42.314Z,5.10
2023-03-31T07:38:12.704Z,4.93
2023-03-31T07:40:41.739Z,4.82
2023-03-31T07:43:11.068Z,5.00
2023-03-31T07:45:40.485Z,5.20
2023-03-31T07:48:08.806Z,5.25
2023-03-31T07:50:37.271Z,5.07
2023-03-31T07:53:05.234Z,5.00
2023-03-31T07:55:33.283Z,5.30
2023-03-31T07:58:01.236Z,6.35
2023-03-31T08:00:30.727Z,5.63
2023-03-31T08:02:58.683Z,5.68
2023-03-31T08:05:26.712Z,5.45
2023-03-31T08:07:54.686Z,4.78
2023-03-31T08:10:25.119Z,5.15
2023-03-31T08:12:53.067Z,4.18
2023-03-31T08:15:21.097Z,5.10
2023-03-31T08:17:50.688Z,4.30
2023-03-31T08:20:18.668Z,4.25
2023-03-31T08:22:46.579Z,4.17
2023-03-31T08:25:14.557Z,4.40
2023-03-31T08:27:43.229Z,4.50
2023-03-31T08:30:13.023Z,4.30
2023-03-31T08:32:41.038Z,4.10
2023-03-31T08:35:11.489Z,4.18
2023-03-31T08:37:40.036Z,3.83
2023-03-31T08:40:12.564Z,3.70
2023-03-31T08:42:44.848Z,3.72
2023-03-31T08:45:20.056Z,3.70
2023-03-31T08:47:50.283Z,3.03
2023-03-31T08:50:25.512Z,3.40
2023-03-31T08:53:07.114Z,4.00
2023-03-31T08:55:43.313Z,3.50
2023-03-31T08:58:22.333Z,3.30
2023-03-31T09:00:58.587Z,3.17
2023-03-31T09:03:33.131Z,3.40
2023-03-31T09:06:07.002Z,2.90
2023-03-31T09:08:37.905Z,3.47
2023-03-31T09:11:11.965Z,3.37
2023-03-31T09:14:24.847Z,3.37
2023-03-31T09:17:01.991Z,3.30
2023-03-31T09:19:38.609Z,3.40
2023-03-31T09:22:15.422Z,3.28
2023-03-31T09:24:52.064Z,3.80
2023-03-31T09:27:22.058Z,2.65
2023-03-31T09:29:53.594Z,3.60
2023-03-31T09:32:24.120Z,3.25
2023-03-31T09:34:54.870Z,3.80
2023-03-31T09:37:26.330Z,3.25
2023-03-31T09:39:54.382Z,2.95
2023-03-31T09:42:23.372Z,3.40
2023-03-31T09:44:51.288Z,3.90
2023-03-31T09:47:30.449Z,3.22
2023-03-31T09:49:58.377Z,3.03
2023-03-31T09:52:32.108Z,3.42
2023-03-31T09:55:02.725Z,3.05
2023-03-31T09:57:33.981Z,2.75
2023-03-31T10:00:13.703Z,3.70
2023-03-31T10:02:45.940Z,3.17
2023-03-31T10:05:31.551Z,2.90
2023-03-31T10:10:58.348Z,3.20
2023-03-31T10:13:29.450Z,2.85
2023-03-31T10:16:04.088Z,2.75
2023-03-31T10:18:37.698Z,2.90
2023-03-31T10:21:08.215Z,2.70
2023-03-31T10:23:37.159Z,2.80
2023-03-31T10:26:06.921Z,4.30
2023-03-31T10:28:37.297Z,3.28
2023-03-31T10:31:06.494Z,3.10
2023-03-31T10:33:39.108Z,3.00
2023-03-31T10:36:13.362Z,3.00
2023-03-31T10:38:45.828Z,3.17
2023-03-31T10:41:21.021Z,3.67
2023-03-31T10:43:52.272Z,3.13
2023-03-31T10:46:20.616Z,3.15
2023-03-31T10:48:48.624Z,4.47
2023-03-31T10:51:18.660Z,2.80
2023-03-31T10:53:48.724Z,3.60
2023-03-31T10:56:43.637Z,3.25
2023-03-31T10:59:42.022Z,3.05
2023-03-31T11:02:43.928Z,2.88
2023-03-31T11:05:18.041Z,3.25
2023-03-31T11:07:59.503Z,2.95
2023-03-31T11:10:52.828Z,4.10
2023-03-31T11:13:29.321Z,3.28
2023-03-31T11:16:08.342Z,2.88
2023-03-31T11:18:52.463Z,2.85
2023-03-31T11:21:26.418Z,3.10
2023-03-31T11:24:09.698Z,3.63
2023-03-31T11:26:47.861Z,4.65
2023-03-31T11:29:31.897Z,2.83
2023-03-31T11:32:17.054Z,3.08
2023-03-31T11:35:00.266Z,3.20
2023-03-31T11:37:41.737Z,4.13
2023-03-31T11:40:31.961Z,4.78
2023-03-31T11:43:03.827Z,3.03
2023-03-31T11:45:38.898Z,3.35
2023-03-31T11:48:17.173Z,3.33
2023-03-31T11:50:48.605Z,3.50
2023-03-31T11:53:21.213Z,4.63
2023-03-31T11:55:52.976Z,3.05
2023-03-31T11:58:28.234Z,3.10
2023-03-31T12:01:03.529Z,3.22
2023-03-31T12:03:41.559Z,3.33
2023-03-31T12:06:19.016Z,3.03
2023-03-31T12:08:56.208Z,2.80
2023-03-31T12:11:32.544Z,3.15
2023-03-31T12:14:09.889Z,3.45
2023-03-31T12:16:44.104Z,3.28
2023-03-31T12:19:18.285Z,3.38
2023-03-31T12:21:52.779Z,3.38
2023-03-31T12:24:21.349Z,3.13
2023-03-31T12:27:00.576Z,3.08
2023-03-31T12:29:32.752Z,3.13
2023-03-31T12:32:06.972Z,2.90
2023-03-31T12:34:42.539Z,2.90
2023-03-31T12:37:28.725Z,3.20
2023-03-31T12:40:09.642Z,3.45
2023-03-31T12:43:07.552Z,3.08
2023-03-31T12:45:41.136Z,2.90
2023-03-31T12:48:33.407Z,3.75
2023-03-31T12:51:21.452Z,2.75
2023-03-31T12:54:14.312Z,3.20
2023-03-31T12:57:05.863Z,2.80
2023-03-31T12:59:41.228Z,2.92
2023-03-31T13:02:26.666Z,3.03
2023-03-31T13:04:56.616Z,4.20
2023-03-31T13:07:42.520Z,4.45
2023-03-31T13:10:31.339Z,3.20
2023-03-31T13:13:05.521Z,2.92
2023-03-31T13:15:36.744Z,3.33
2023-03-31T13:18:06.695Z,5.20
2023-03-31T13:20:38.137Z,3.80
2023-03-31T13:23:14.877Z,2.70
2023-03-31T13:25:48.670Z,2.60
2023-03-31T13:28:35.122Z,2.70
2023-03-31T13:31:04.129Z,2.25
2023-03-31T13:33:49.942Z,4.00
2023-03-31T13:36:51.320Z,2.63
2023-03-31T13:39:51.696Z,3.40
2023-03-31T13:42:42.646Z,3.65
2023-03-31T13:45:45.706Z,2.78
2023-03-31T13:48:28.097Z,2.95
2023-03-31T13:51:13.753Z,3.50
2023-03-31T13:54:16.973Z,3.67
2023-03-31T13:57:23.177Z,3.08
2023-03-31T14:00:13.039Z,3.80
2023-03-31T14:02:58.532Z,4.03
2023-03-31T14:05:38.845Z,3.80
2023-03-31T14:08:14.717Z,3.63
2023-03-31T14:10:45.310Z,3.33
2023-03-31T14:16:04.416Z,3.22
2023-03-31T14:18:35.923Z,2.95
2023-03-31T14:21:17.922Z,3.05
2023-03-31T14:23:56.831Z,2.80
2023-03-31T14:26:47.012Z,2.83
2023-03-31T14:29:24.507Z,3.10
2023-03-31T14:32:00.617Z,3.97
2023-03-31T14:34:51.667Z,5.83
2023-03-31T14:37:23.031Z,4.00
2023-03-31T14:39:53.894Z,4.13
2023-03-31T14:42:27.457Z,3.00
2023-03-31T14:44:57.654Z,3.40
2023-03-31T14:47:30.449Z,4.30
2023-03-31T14:50:02.691Z,4.30
2023-03-31T14:52:33.781Z,4.00
2023-03-31T14:55:02.044Z,4.47
2023-03-31T14:57:35.176Z,4.30
2023-03-31T15:00:08.010Z,4.10
2023-03-31T15:02:38.318Z,3.50
2023-03-31T15:05:09.800Z,4.57
2023-03-31T15:07:38.834Z,5.33
2023-03-31T15:10:08.638Z,3.60
2023-03-31T15:12:38.659Z,2.93
2023-03-31T15:15:08.472Z,4.90
2023-03-31T15:17:40.233Z,3.80
2023-03-31T15:20:28.214Z,3.10
2023-03-31T15:22:57.250Z,4.30
2023-03-31T15:25:28.561Z,3.43
2023-03-31T15:28:01.789Z,3.80
2023-03-31T15:30:30.964Z,4.10
2023-03-31T15:33:11.648Z,3.30
2023-03-31T15:35:46.930Z,3.40
2023-03-31T15:38:20.396Z,4.33
2023-03-31T15:40:54.083Z,4.17
2023-03-31T15:43:32.308Z,3.47
2023-03-31T15:46:01.669Z,3.50
2023-03-31T15:48:33.518Z,3.43
2023-03-31T15:51:03.858Z,3.70
2023-03-31T15:53:37.351Z,3.20
2023-03-31T15:56:07.418Z,6.47
2023-03-31T15:59:03.087Z,3.97
2023-03-31T16:01:35.093Z,2.80
2023-03-31T16:04:07.634Z,3.13
2023-03-31T16:06:46.244Z,2.73
2023-03-31T16:09:20.703Z,2.97
2023-03-31T16:11:53.535Z,3.20
2023-03-31T16:14:26.828Z,3.60
2023-03-31T16:17:03.058Z,3.00
2023-03-31T16:19:34.429Z,2.80
2023-03-31T16:22:04.793Z,3.73
2023-03-31T16:24:34.871Z,3.77
2023-03-31T16:27:06.618Z,3.23
2023-03-31T16:29:37.543Z,3.83
2023-03-31T16:32:09.834Z,3.50
2023-03-31T16:34:53.237Z,6.23
2023-03-31T16:37:21.671Z,5.70
2023-03-31T16:39:49.577Z,5.57
2023-03-31T16:42:17.762Z,5.97
2023-03-31T16:44:52.887Z,5.20
2023-03-31T16:47:35.205Z,6.73
2023-03-31T16:50:07.507Z,6.93
2023-03-31T16:52:36.069Z,6.90
2023-03-31T16:55:04.806Z,13.97
2023-03-31T16:57:33.423Z,9.10
2023-03-31T17:00:05.643Z,9.00
2023-03-31T17:02:33.573Z,16.67
2023-03-31T17:05:12.649Z,11.33
2023-03-31T17:07:41.251Z,5.97
2023-03-31T17:10:10.416Z,8.33
2023-03-31T17:12:38.375Z,9.40
2023-03-31T17:15:09.197Z,9.10
2023-03-31T17:17:37.415Z,7.23
2023-03-31T17:20:08.748Z,7.57
2023-03-31T17:22:36.666Z,7.90
2023-03-31T17:25:07.125Z,8.80
2023-03-31T17:27:35.857Z,8.97
2023-03-31T17:32:40.433Z,9.40
2023-03-31T17:35:10.406Z,7.70
2023-03-31T17:37:38.741Z,7.53
2023-03-31T17:40:07.873Z,7.77
2023-03-31T17:42:35.785Z,7.70
2023-03-31T17:45:03.794Z,8.90
2023-03-31T17:47:32.634Z,8.83
2023-03-31T17:50:02.271Z,9.20
2023-03-31T17:52:31.056Z,9.13
2023-03-31T17:54:59.410Z,7.97
2023-03-31T17:57:27.533Z,9.20
2023-03-31T17:59:55.819Z,8.90
2023-03-31T18:02:24.264Z,8.97
2023-03-31T18:04:52.448Z,7.87
2023-03-31T18:07:23.254Z,7.03
2023-03-31T18:09:51.560Z,8.37
2023-03-31T18:12:19.671Z,9.40
2023-03-31T18:14:48.171Z,23.63
2023-03-31T18:17:16.158Z,18.83
2023-03-31T18:19:44.812Z,24.63
2023-03-31T18:22:12.919Z,11.50
2023-03-31T18:24:42.745Z,14.53
2023-03-31T18:27:12.386Z,25.57
2023-03-31T18:29:40.738Z,10.03
2023-03-31T18:32:09.929Z,15.83
2023-03-31T18:34:38.440Z,13.37
2023-03-31T18:37:06.716Z,12.40
2023-03-31T18:39:35.341Z,11.77
2023-03-31T18:42:05.550Z,10.87
2023-03-31T18:44:36.047Z,11.37
2023-03-31T18:47:04.649Z,18.43
2023-03-31T18:49:33.160Z,10.83
2023-03-31T18:52:04.339Z,12.33
2023-03-31T18:54:32.306Z,11.80
2023-03-31T18:57:01.546Z,11.90
2023-03-31T18:59:31.178Z,9.03
2023-03-31T19:01:59.097Z,13.00
2023-03-31T19:04:27.258Z,11.90
2023-03-31T19:06:56.534Z,9.20
2023-03-31T19:09:27.974Z,10.43
2023-03-31T19:11:57.520Z,9.33
2023-03-31T19:14:25.415Z,11.33
2023-03-31T19:16:54.741Z,12.03
2023-03-31T19:19:22.805Z,12.67
2023-03-31T19:21:52.403Z,12.07
2023-03-31T19:24:20.500Z,20.23
2023-03-31T19:26:49.062Z,16.90
2023-03-31T19:29:17.641Z,16.33
2023-03-31T19:31:47.705Z,16.43
2023-03-31T19:34:17.924Z,16.67
2023-03-31T19:36:45.884Z,20.57
2023-03-31T19:39:14.009Z,18.27
2023-03-31T19:41:41.894Z,14.17
2023-03-31T19:44:09.785Z,14.33
2023-03-31T19:46:37.799Z,13.00
2023-03-31T19:49:06.465Z,15.30
2023-03-31T19:51:35.721Z,14.33
2023-03-31T19:54:03.612Z,14.70
2023-03-31T19:56:35.554Z,16.80
2023-03-31T19:59:04.969Z,15.10
2023-03-31T20:01:33.601Z,17.53
2023-03-31T20:04:01.835Z,16.20
2023-03-31T20:06:31.916Z,16.50
2023-03-31T20:09:03.728Z,17.93
2023-03-31T20:11:32.265Z,19.07
2023-03-31T20:14:00.864Z,19.50
2023-03-31T20:16:30.735Z,18.60
2023-03-31T20:19:01.276Z,19.20
2023-03-31T20:21:32.042Z,17.83
2023-03-31T20:24:01.458Z,18.63
2023-03-31T20:26:32.505Z,17.97
2023-03-31T20:29:03.882Z,18.07
2023-03-31T20:31:36.836Z,16.83
2023-03-31T20:34:06.152Z,15.20
2023-03-31T20:36:34.387Z,19.07
2023-03-31T20:39:05.688Z,30.73
2023-03-31T20:41:35.596Z,17.47
2023-03-31T20:44:03.834Z,18.67
2023-03-31T20:46:32.069Z,9.63
2023-03-31T20:49:00.793Z,11.03
2023-03-31T20:51:33.470Z,12.20
2023-03-31T20:54:04.063Z,15.47
2023-03-31T20:56:33.658Z,10.53
2023-03-31T20:59:02.290Z,9.53
2023-03-31T21:01:32.604Z,11.77
2023-03-31T21:04:01.747Z,10.70
2023-03-31T21:06:32.542Z,12.60
2023-03-31T21:09:01.045Z,14.37
2023-03-31T21:11:33.039Z,10.07
2023-03-31T21:14:01.072Z,10.67
2023-03-31T21:16:29.076Z,13.20
2023-03-31T21:18:58.680Z,10.70
2023-03-31T21:21:27.555Z,10.60
2023-03-31T21:23:56.013Z,11.20
2023-03-31T21:26:25.016Z,12.30
2023-03-31T21:28:54.906Z,15.43
2023-03-31T21:31:24.557Z,13.93
2023-03-31T21:33:56.599Z,21.60
2023-03-31T21:36:26.858Z,27.33
2023-03-31T21:38:56.830Z,28.40
2023-03-31T21:41:27.214Z,26.37
2023-03-31T21:44:00.572Z,24.00
2023-03-31T21:46:32.893Z,14.83
2023-03-31T21:49:01.842Z,14.43
2023-03-31T21:51:30.072Z,14.03
2023-03-31T21:53:58.474Z,20.53
2023-03-31T21:56:32.046Z,24.57
2023-03-31T21:59:02.492Z,25.33
2023-03-31T22:01:30.839Z,20.73
2023-03-31T22:04:00.489Z,22.40
2023-03-31T22:06:28.772Z,22.77
2023-03-31T22:08:56.733Z,25.40
2023-03-31T22:11:24.859Z,24.97
2023-03-31T22:13:53.098Z,24.90
2023-03-31T22:16:24.952Z,24.23
2023-03-31T22:18:55.959Z,23.50
2023-03-31T22:21:26.037Z,26.57
2023-03-31T22:23:55.233Z,25.93
2023-03-31T22:26:24.294Z,24.50
2023-03-31T22:28:53.432Z,27.23
2023-03-31T22:31:22.995Z,30.07
2023-03-31T22:33:53.983Z,27.40
2023-03-31T22:36:24.374Z,26.63
2023-03-31T22:38:53.947Z,25.70
2023-03-31T22:41:22.078Z,25.03
2023-03-31T22:43:52.633Z,24.87
2023-03-31T22:46:32.148Z,27.33
2023-03-31T22:49:01.521Z,26.13
2023-03-31T22:51:30.066Z,25.20
2023-03-31T22:53:58.816Z,24.67
2023-03-31T22:56:28.737Z,26.47
2023-03-31T22:58:57.962Z,24.40
2023-03-31T23:01:28.143Z,23.10
2023-03-31T23:03:56.364Z,22.93
2023-03-31T23:06:24.298Z,23.50
2023-03-31T23:08:52.573Z,22.73
2023-03-31T23:11:20.727Z,20.50
2023-03-31T23:13:49.025Z,19.90
2023-03-31T23:16:19.030Z,21.13
2023-03-31T23:18:48.889Z,26.27
2023-03-31T23:21:19.519Z,26.50
2023-03-31T23:23:51.372Z,16.63
2023-03-31T23:26:20.305Z,14.53
2023-03-31T23:28:49.891Z,14.10
2023-03-31T23:31:18.762Z,14.03
2023-03-31T23:33:48.356Z,13.03
2023-03-31T23:36:18.490Z,14.33
2023-03-31T23:38:47.010Z,14.73
2023-03-31T23:41:15.054Z,14.53
2023-03-31T23:43:43.044Z,13.13
2023-03-31T23:46:11.966Z,13.70
2023-03-31T23:48:40.953Z,13.70
2023-03-31T23:51:11.541Z,15.10
2023-03-31T23:53:40.900Z,13.00
2023-03-31T23:56:15.315Z,12.90
2023-03-31T23:58:45.104Z,13.17
